Alkabo, North Dakota
Current Conditions -  °F | °C
As of 11:52 PM on Tuesday 25 Nov 2014 (Local Time) from KISN Reporting Station
Overcast Overcast  
Wind Chill:   Ceiling: 1900
Heat Index: 16°   Visibility: 10mi
Dew Point: 10°   Wind: 7mph
Humidity: 77%   Direction: 30°NNE
Pressure: 30.21"   Gusts: NA
Location:  48.5901°N, 103.922°W
Report Text: KISN 260552Z AUTO 03006KT 10SM OVC019 M09/M12 A3021 RMK AO2 SLP263 T10891122 11044 21089 400281089 53022
Loading
Personal Weather Stations






























Interactive Weather Map New forecast layout! Learn more

10-Day Weather Forecast

Advertisements
Track Severe Weather on mobile